Time;durP1;ratioP1;P1;durP2;ratioP2;P2;SDS_P1;SDS_P2;PMS_P1;PMS_P2;Temp;Humidity;BMP_temperature;BMP_pressure;BME280_temperature;BME280_humidity;BME280_pressure;Samples;Min_cycle;Max_cycle;Signal;HPM_P1;HPM_P2
2023/01/15 00:04:50;;;;;;;6.3;3.4;;;;;;;1.9;80.9;98350;;;;
2023/01/15 00:14:50;;;;;;;6.3;3.4;;;;;;;2.1;80.4;98340;;;;
2023/01/15 00:35:50;;;;;;;7.8;3.7;;;;;;;2.3;78.8;98330;;;;
2023/01/15 00:45:50;;;;;;;7.8;3.7;;;;;;;2.4;78.5;98310;;;;
2023/01/15 00:56:50;;;;;;;9.1;4.1;;;;;;;2.4;78.4;98280;;;;
2023/01/15 01:06:50;;;;;;;9.1;4.1;;;;;;;2.5;78.3;98270;;;;
2023/01/15 01:16:50;;;;;;;9.1;4.1;;;;;;;2.5;78.5;98260;;;;
2023/01/15 01:26:50;;;;;;;6;3;;;;;;;2.7;77.9;98240;;;;
2023/01/15 01:36:50;;;;;;;6;3;;;;;;;2.8;77.8;98220;;;;
2023/01/15 01:47:50;;;;;;;6;3;;;;;;;3;77.3;98190;;;;
2023/01/15 01:57:50;;;;;;;4.1;1.8;;;;;;;3.2;76.7;98170;;;;
2023/01/15 02:07:50;;;;;;;4.1;1.8;;;;;;;3.3;76.6;98170;;;;
2023/01/15 02:18:50;;;;;;;4.1;1.8;;;;;;;3.5;75.9;98170;;;;
2023/01/15 02:28:50;;;;;;;4.8;1.9;;;;;;;3.7;75.1;98160;;;;
2023/01/15 02:39:50;;;;;;;4.8;1.9;;;;;;;4;73.8;98140;;;;
2023/01/15 02:49:50;;;;;;;4.8;1.9;;;;;;;4.2;73.1;98140;;;;
2023/01/15 02:59:50;;;;;;;5.2;2;;;;;;;4.3;72.3;98140;;;;
2023/01/15 03:10:50;;;;;;;5.2;2;;;;;;;4.3;73;98150;;;;
2023/01/15 03:21:50;;;;;;;4.1;1.8;;;;;;;4.5;71.6;98130;;;;
2023/01/15 03:31:50;;;;;;;4.1;1.8;;;;;;;4.8;70.5;98120;;;;
2023/01/15 03:41:50;;;;;;;4.1;1.8;;;;;;;5.3;68.5;98120;;;;
2023/01/15 03:52:50;;;;;;;4.8;2.1;;;;;;;6.1;65.8;98100;;;;
2023/01/15 04:02:50;;;;;;;4.8;2.1;;;;;;;6.4;64.2;98090;;;;
2023/01/15 04:12:50;;;;;;;4.8;2.1;;;;;;;6.8;63.4;98050;;;;
2023/01/15 04:23:50;;;;;;;3.8;2.1;;;;;;;6.9;62.9;98040;;;;
2023/01/15 04:33:50;;;;;;;3.8;2.1;;;;;;;6.8;64.5;98030;;;;
2023/01/15 04:44:06;;;;;;;3.8;2.1;;;;;;;6.6;65.1;98020;;;;
2023/01/15 04:54:52;;;;;;;4.4;2.2;;;;;;;6.5;66.8;98000;;;;
2023/01/15 05:04:50;;;;;;;4.4;2.2;;;;;;;6.4;67.2;97980;;;;
2023/01/15 05:15:50;;;;;;;4.4;2.2;;;;;;;6.4;67.3;97970;;;;
2023/01/15 05:25:50;;;;;;;3.9;2;;;;;;;6.3;67.8;97940;;;;
2023/01/15 05:36:50;;;;;;;3.9;2;;;;;;;6.3;67.3;97920;;;;
2023/01/15 05:46:50;;;;;;;3.9;2;;;;;;;6.4;67.3;97920;;;;
2023/01/15 05:56:50;;;;;;;3.9;2.3;;;;;;;6.3;67.4;97910;;;;
2023/01/15 06:06:50;;;;;;;3.9;2.3;;;;;;;6.3;67.4;97910;;;;
2023/01/15 06:17:50;;;;;;;3.9;2.3;;;;;;;6.3;67.7;97900;;;;
2023/01/15 06:27:50;;;;;;;4;1.7;;;;;;;6.3;67.4;97910;;;;
2023/01/15 06:37:50;;;;;;;4;1.7;;;;;;;6.3;67.8;97910;;;;
2023/01/15 06:47:50;;;;;;;4;1.7;;;;;;;6.3;67.9;97910;;;;
2023/01/15 06:57:50;;;;;;;7.3;2.5;;;;;;;6.3;67.7;97900;;;;
2023/01/15 07:08:50;;;;;;;7.3;2.5;;;;;;;6.3;68.2;97890;;;;
2023/01/15 07:18:50;;;;;;;7.3;2.5;;;;;;;6.3;68.3;97890;;;;
2023/01/15 07:29:51;;;;;;;4.9;2.6;;;;;;;6.3;68.5;97890;;;;
2023/01/15 07:39:50;;;;;;;4.9;2.6;;;;;;;6.5;68.3;97890;;;;
2023/01/15 07:49:50;;;;;;;4.9;2.6;;;;;;;6.6;68.3;97880;;;;
2023/01/15 08:00:50;;;;;;;6.5;3.8;;;;;;;6.8;68.2;97890;;;;
2023/01/15 08:21:51;;;;;;;8.2;5.3;;;;;;;7.8;67.3;97890;;;;
2023/01/15 08:31:51;;;;;;;8.2;5.3;;;;;;;8.2;66;97880;;;;
2023/01/15 08:42:51;;;;;;;8.2;5.3;;;;;;;8.6;62.2;97870;;;;
2023/01/15 08:53:50;;;;;;;10;7;;;;;;;8.8;62.9;97870;;;;
2023/01/15 09:04:51;;;;;;;10;7;;;;;;;8.9;61.2;97860;;;;
2023/01/15 09:15:51;;;;;;;10;7;;;;;;;9;61.3;97860;;;;
2023/01/15 09:25:51;;;;;;;6.2;3.2;;;;;;;9.2;62;97850;;;;
2023/01/15 09:36:51;;;;;;;6.2;3.2;;;;;;;9.2;61.4;97840;;;;
2023/01/15 09:46:51;;;;;;;6.2;3.2;;;;;;;9.3;61.5;97830;;;;
2023/01/15 09:57:51;;;;;;;6.9;4;;;;;;;9.4;61.8;97830;;;;
2023/01/15 10:08:51;;;;;;;6.9;4;;;;;;;9.5;61.2;97820;;;;
2023/01/15 10:18:51;;;;;;;6.9;4;;;;;;;9.6;62.3;97820;;;;
2023/01/15 10:28:51;;;;;;;8.8;5.1;;;;;;;9.7;58.8;97820;;;;
2023/01/15 10:38:52;;;;;;;8.8;5.1;;;;;;;9.7;55.1;97810;;;;
2023/01/15 10:49:51;;;;;;;8.8;5.1;;;;;;;9.7;52.9;97800;;;;
2023/01/15 11:00:51;;;;;;;6.1;3.4;;;;;;;9.7;52.8;97800;;;;
2023/01/15 11:21:51;;;;;;;4;2.3;;;;;;;9.5;53.9;97750;;;;
2023/01/15 11:32:51;;;;;;;4;2.3;;;;;;;9.3;55.2;97760;;;;
2023/01/15 11:53:51;;;;;;;4.4;2.1;;;;;;;9;57.9;97750;;;;
2023/01/15 12:04:52;;;;;;;4.4;2.1;;;;;;;8.9;60.8;97730;;;;
2023/01/15 12:14:51;;;;;;;4.4;2.1;;;;;;;8.5;64.1;97720;;;;
2023/01/15 12:25:51;;;;;;;4.8;2.5;;;;;;;8.3;66;97700;;;;
2023/01/15 12:36:51;;;;;;;4.8;2.5;;;;;;;8.2;67.9;97690;;;;
2023/01/15 12:46:51;;;;;;;4.8;2.5;;;;;;;8.2;68.3;97670;;;;
2023/01/15 12:57:51;;;;;;;6.5;3.9;;;;;;;8.3;69.1;97660;;;;
2023/01/15 13:07:51;;;;;;;6.5;3.9;;;;;;;8.3;70.3;97650;;;;
2023/01/15 13:18:51;;;;;;;6.5;3.9;;;;;;;8.4;70.5;97640;;;;
2023/01/15 13:28:51;;;;;;;9.4;5.3;;;;;;;8.3;72.2;97630;;;;
2023/01/15 13:38:51;;;;;;;9.4;5.3;;;;;;;8.2;73.3;97620;;;;
2023/01/15 13:48:51;;;;;;;9.4;5.3;;;;;;;8.3;71.7;97620;;;;
2023/01/15 13:58:51;;;;;;;6.4;4.1;;;;;;;8.3;71.3;97620;;;;
2023/01/15 14:08:51;;;;;;;6.4;4.1;;;;;;;8.2;71.5;97630;;;;
2023/01/15 14:19:51;;;;;;;6.4;4.1;;;;;;;8.3;70.3;97610;;;;
2023/01/15 14:30:51;;;;;;;12.2;5.7;;;;;;;8.2;70.2;97600;;;;
2023/01/15 14:40:51;;;;;;;12.2;5.7;;;;;;;7.9;71.1;97600;;;;
2023/01/15 14:51:51;;;;;;;6.6;4.3;;;;;;;7.8;71.7;97590;;;;
2023/01/15 15:02:51;;;;;;;6.6;4.3;;;;;;;7.8;72.3;97580;;;;
2023/01/15 15:13:51;;;;;;;6.6;4.3;;;;;;;7.6;73;97580;;;;
2023/01/15 15:23:51;;;;;;;10.4;4.8;;;;;;;7.7;72.3;97590;;;;
2023/01/15 15:33:51;;;;;;;10.4;4.8;;;;;;;7.7;72;97580;;;;
2023/01/15 15:54:51;;;;;;;7.8;5.3;;;;;;;7.8;71.4;97580;;;;
2023/01/15 16:04:51;;;;;;;7.8;5.3;;;;;;;7.8;71.4;97580;;;;
2023/01/15 16:14:51;;;;;;;7.8;5.3;;;;;;;7.8;71.8;97570;;;;
2023/01/15 16:25:51;;;;;;;14.8;11.7;;;;;;;7.8;72.4;97580;;;;
2023/01/15 16:36:51;;;;;;;14.8;11.7;;;;;;;7.7;74;97610;;;;
2023/01/15 16:47:51;;;;;;;14.8;11.7;;;;;;;7.6;75.8;97610;;;;
2023/01/15 16:57:51;;;;;;;13.3;9.2;;;;;;;7.7;75.7;97620;;;;
2023/01/15 17:07:53;;;;;;;13.3;9.2;;;;;;;7.7;76.6;97640;;;;
2023/01/15 17:18:51;;;;;;;13.3;9.2;;;;;;;7.6;78.4;97680;;;;
2023/01/15 17:29:51;;;;;;;10.5;6.7;;;;;;;7.4;80.8;97750;;;;
2023/01/15 17:40:51;;;;;;;10.5;6.7;;;;;;;7.4;81.4;97810;;;;
2023/01/15 17:51:51;;;;;;;8.1;5.3;;;;;;;7.2;82.7;97840;;;;
2023/01/15 18:12:51;;;;;;;8.1;5.3;;;;;;;6.8;85.2;97880;;;;
2023/01/15 18:22:51;;;;;;;7.1;5;;;;;;;6.6;85.9;97900;;;;
2023/01/15 18:32:51;;;;;;;7.1;5;;;;;;;6.3;85.9;97900;;;;
2023/01/15 18:53:51;;;;;;;8.4;4.4;;;;;;;6.1;85.7;97900;;;;
2023/01/15 19:04:51;;;;;;;8.4;4.4;;;;;;;6.1;85.5;97920;;;;
2023/01/15 19:25:51;;;;;;;3.4;1.7;;;;;;;6;85.1;97940;;;;
2023/01/15 19:35:51;;;;;;;3.4;1.7;;;;;;;6;85.2;97950;;;;
2023/01/15 19:57:51;;;;;;;6.1;3.1;;;;;;;5.9;85.5;97950;;;;
2023/01/15 20:08:51;;;;;;;6.1;3.1;;;;;;;6;85.5;97960;;;;
2023/01/15 20:18:52;;;;;;;6.1;3.1;;;;;;;6;85.6;97970;;;;
2023/01/15 20:29:51;;;;;;;7.9;5.1;;;;;;;6;85.5;97980;;;;
2023/01/15 20:40:51;;;;;;;7.9;5.1;;;;;;;5.8;86;97970;;;;
2023/01/15 20:51:51;;;;;;;9.3;5.7;;;;;;;5.6;86.9;97970;;;;
2023/01/15 21:01:51;;;;;;;9.3;5.7;;;;;;;5.6;87.2;97960;;;;
2023/01/15 21:11:51;;;;;;;9.3;5.7;;;;;;;5.3;86.7;97960;;;;
2023/01/15 21:21:51;;;;;;;5.3;3.1;;;;;;;5.3;86;97960;;;;
2023/01/15 21:31:52;;;;;;;5.3;3.1;;;;;;;5.2;85.5;97960;;;;
2023/01/15 21:52:51;;;;;;;2.9;1.4;;;;;;;5;85.4;97960;;;;
2023/01/15 22:02:52;;;;;;;2.9;1.4;;;;;;;4.9;85.3;97960;;;;
2023/01/15 22:13:51;;;;;;;2.9;1.4;;;;;;;4.8;85.4;97960;;;;
2023/01/15 22:23:51;;;;;;;2.7;1.3;;;;;;;4.8;85.2;97960;;;;
2023/01/15 22:34:51;;;;;;;2.7;1.3;;;;;;;4.8;85;97960;;;;
2023/01/15 22:45:51;;;;;;;2.7;1.3;;;;;;;4.7;84.9;97940;;;;
2023/01/15 22:55:51;;;;;;;3.6;1.3;;;;;;;4.7;85;97930;;;;
2023/01/15 23:05:51;;;;;;;3.6;1.3;;;;;;;4.8;84.3;97930;;;;
2023/01/15 23:15:51;;;;;;;3.6;1.3;;;;;;;4.8;84;97930;;;;
2023/01/15 23:26:51;;;;;;;6.2;1.5;;;;;;;4.8;83.4;97930;;;;
2023/01/15 23:36:51;;;;;;;6.2;1.5;;;;;;;4.8;83.9;97920;;;;
2023/01/15 23:46:51;;;;;;;6.2;1.5;;;;;;;4.9;83.6;97920;;;;
2023/01/15 23:57:51;;;;;;;3.2;1.3;;;;;;;5;83.3;97910;;;;
